sensor_id;sensor_type;location;lat;lon;timestamp;temperature;humidity
70762;DHT22;58360;0.000;0.000;2023-02-28T00:00:18;2.00;75.70
70762;DHT22;58360;0.000;0.000;2023-02-28T00:02:45;1.90;75.80
70762;DHT22;58360;0.000;0.000;2023-02-28T00:05:14;1.90;75.80
70762;DHT22;58360;0.000;0.000;2023-02-28T00:07:41;1.90;76.00
70762;DHT22;58360;0.000;0.000;2023-02-28T00:10:12;1.90;76.10
70762;DHT22;58360;0.000;0.000;2023-02-28T00:12:39;1.90;76.40
70762;DHT22;58360;0.000;0.000;2023-02-28T00:15:09;2.00;75.90
70762;DHT22;58360;0.000;0.000;2023-02-28T00:17:35;2.10;75.80
70762;DHT22;58360;0.000;0.000;2023-02-28T00:20:02;2.10;75.70
70762;DHT22;58360;0.000;0.000;2023-02-28T00:22:49;2.00;75.80
70762;DHT22;58360;0.000;0.000;2023-02-28T00:25:17;1.90;75.90
70762;DHT22;58360;0.000;0.000;2023-02-28T00:27:44;1.90;75.80
70762;DHT22;58360;0.000;0.000;2023-02-28T00:30:16;1.90;75.90
70762;DHT22;58360;0.000;0.000;2023-02-28T00:32:42;2.00;75.80
70762;DHT22;58360;0.000;0.000;2023-02-28T00:35:09;2.00;75.90
70762;DHT22;58360;0.000;0.000;2023-02-28T00:37:36;1.90;76.10
70762;DHT22;58360;0.000;0.000;2023-02-28T00:40:02;1.80;76.30
70762;DHT22;58360;0.000;0.000;2023-02-28T00:42:30;2.00;76.40
70762;DHT22;58360;0.000;0.000;2023-02-28T00:44:56;2.00;76.10
70762;DHT22;58360;0.000;0.000;2023-02-28T00:47:21;2.10;76.10
70762;DHT22;58360;0.000;0.000;2023-02-28T00:49:47;2.10;76.10
70762;DHT22;58360;0.000;0.000;2023-02-28T00:52:13;2.00;76.10
70762;DHT22;58360;0.000;0.000;2023-02-28T00:54:38;2.20;76.30
70762;DHT22;58360;0.000;0.000;2023-02-28T00:57:04;2.10;76.50
70762;DHT22;58360;0.000;0.000;2023-02-28T00:59:30;2.30;75.70
70762;DHT22;58360;0.000;0.000;2023-02-28T01:01:56;2.10;76.30
70762;DHT22;58360;0.000;0.000;2023-02-28T01:04:21;2.00;76.90
70762;DHT22;58360;0.000;0.000;2023-02-28T01:06:47;2.00;76.60
70762;DHT22;58360;0.000;0.000;2023-02-28T01:09:13;2.20;76.20
70762;DHT22;58360;0.000;0.000;2023-02-28T01:11:38;2.10;75.90
70762;DHT22;58360;0.000;0.000;2023-02-28T01:14:06;2.10;76.10
70762;DHT22;58360;0.000;0.000;2023-02-28T01:16:32;2.00;76.50
70762;DHT22;58360;0.000;0.000;2023-02-28T01:18:58;2.10;76.00
70762;DHT22;58360;0.000;0.000;2023-02-28T01:21:23;2.20;75.60
70762;DHT22;58360;0.000;0.000;2023-02-28T01:23:50;2.10;76.10
70762;DHT22;58360;0.000;0.000;2023-02-28T01:26:19;2.30;75.90
70762;DHT22;58360;0.000;0.000;2023-02-28T01:28:45;2.30;75.40
70762;DHT22;58360;0.000;0.000;2023-02-28T01:31:12;2.20;75.70
70762;DHT22;58360;0.000;0.000;2023-02-28T01:33:38;2.40;75.40
70762;DHT22;58360;0.000;0.000;2023-02-28T01:36:11;2.20;76.00
70762;DHT22;58360;0.000;0.000;2023-02-28T01:38:37;2.30;75.30
70762;DHT22;58360;0.000;0.000;2023-02-28T01:41:04;2.30;75.70
70762;DHT22;58360;0.000;0.000;2023-02-28T01:46:09;2.10;76.30
70762;DHT22;58360;0.000;0.000;2023-02-28T01:48:38;2.10;76.20
70762;DHT22;58360;0.000;0.000;2023-02-28T01:51:08;1.90;77.00
70762;DHT22;58360;0.000;0.000;2023-02-28T01:53:41;1.80;77.40
70762;DHT22;58360;0.000;0.000;2023-02-28T01:56:10;1.90;77.40
70762;DHT22;58360;0.000;0.000;2023-02-28T01:58:37;1.90;77.00
70762;DHT22;58360;0.000;0.000;2023-02-28T02:01:03;1.90;77.20
70762;DHT22;58360;0.000;0.000;2023-02-28T02:03:30;1.90;77.50
70762;DHT22;58360;0.000;0.000;2023-02-28T02:05:56;1.90;77.20
70762;DHT22;58360;0.000;0.000;2023-02-28T02:08:28;1.90;77.30
70762;DHT22;58360;0.000;0.000;2023-02-28T02:10:57;1.70;77.90
70762;DHT22;58360;0.000;0.000;2023-02-28T02:18:48;1.40;79.50
70762;DHT22;58360;0.000;0.000;2023-02-28T02:27:08;1.60;79.20
70762;DHT22;58360;0.000;0.000;2023-02-28T02:38:31;1.30;80.30
70762;DHT22;58360;0.000;0.000;2023-02-28T02:44:24;1.40;79.90
70762;DHT22;58360;0.000;0.000;2023-02-28T02:46:55;1.40;80.00
70762;DHT22;58360;0.000;0.000;2023-02-28T02:49:33;1.30;80.30
70762;DHT22;58360;0.000;0.000;2023-02-28T02:52:04;1.10;80.60
70762;DHT22;58360;0.000;0.000;2023-02-28T02:54:37;1.20;80.70
70762;DHT22;58360;0.000;0.000;2023-02-28T02:57:08;1.10;80.80
70762;DHT22;58360;0.000;0.000;2023-02-28T02:59:40;1.20;80.80
70762;DHT22;58360;0.000;0.000;2023-02-28T03:02:10;1.30;79.90
70762;DHT22;58360;0.000;0.000;2023-02-28T03:04:45;1.20;80.60
70762;DHT22;58360;0.000;0.000;2023-02-28T03:07:11;1.30;80.10
70762;DHT22;58360;0.000;0.000;2023-02-28T03:09:37;1.30;79.90
70762;DHT22;58360;0.000;0.000;2023-02-28T03:12:03;1.40;80.00
70762;DHT22;58360;0.000;0.000;2023-02-28T03:22:45;1.00;81.00
70762;DHT22;58360;0.000;0.000;2023-02-28T03:30:57;1.00;81.20
70762;DHT22;58360;0.000;0.000;2023-02-28T03:33:28;0.90;81.40
70762;DHT22;58360;0.000;0.000;2023-02-28T03:36:08;0.80;81.70
70762;DHT22;58360;0.000;0.000;2023-02-28T03:38:42;0.70;81.90
70762;DHT22;58360;0.000;0.000;2023-02-28T03:43:50;0.70;82.20
70762;DHT22;58360;0.000;0.000;2023-02-28T03:46:19;0.70;82.20
70762;DHT22;58360;0.000;0.000;2023-02-28T03:51:38;0.80;82.10
70762;DHT22;58360;0.000;0.000;2023-02-28T03:54:10;0.90;82.90
70762;DHT22;58360;0.000;0.000;2023-02-28T03:56:49;0.70;82.20
70762;DHT22;58360;0.000;0.000;2023-02-28T03:59:53;0.90;81.90
70762;DHT22;58360;0.000;0.000;2023-02-28T04:02:19;0.70;82.00
70762;DHT22;58360;0.000;0.000;2023-02-28T04:04:45;0.70;82.10
70762;DHT22;58360;0.000;0.000;2023-02-28T04:07:14;0.70;82.50
70762;DHT22;58360;0.000;0.000;2023-02-28T04:09:40;0.80;82.40
70762;DHT22;58360;0.000;0.000;2023-02-28T04:12:06;1.00;82.30
70762;DHT22;58360;0.000;0.000;2023-02-28T04:14:32;0.90;82.30
70762;DHT22;58360;0.000;0.000;2023-02-28T04:16:57;0.80;82.40
70762;DHT22;58360;0.000;0.000;2023-02-28T04:19:23;0.80;82.40
70762;DHT22;58360;0.000;0.000;2023-02-28T04:21:52;0.80;82.50
70762;DHT22;58360;0.000;0.000;2023-02-28T04:24:23;0.80;82.80
70762;DHT22;58360;0.000;0.000;2023-02-28T04:26:54;0.80;82.70
70762;DHT22;58360;0.000;0.000;2023-02-28T04:29:23;1.00;82.50
70762;DHT22;58360;0.000;0.000;2023-02-28T04:31:49;1.10;82.00
70762;DHT22;58360;0.000;0.000;2023-02-28T04:34:16;1.10;82.00
70762;DHT22;58360;0.000;0.000;2023-02-28T04:36:42;1.40;81.20
70762;DHT22;58360;0.000;0.000;2023-02-28T04:39:08;1.60;79.70
70762;DHT22;58360;0.000;0.000;2023-02-28T04:41:35;1.90;78.60
70762;DHT22;58360;0.000;0.000;2023-02-28T04:44:00;2.00;77.80
70762;DHT22;58360;0.000;0.000;2023-02-28T04:46:26;2.00;78.00
70762;DHT22;58360;0.000;0.000;2023-02-28T04:48:52;1.90;78.40
70762;DHT22;58360;0.000;0.000;2023-02-28T04:51:19;1.90;78.20
70762;DHT22;58360;0.000;0.000;2023-02-28T04:53:46;2.00;78.20
70762;DHT22;58360;0.000;0.000;2023-02-28T04:56:14;2.00;78.00
70762;DHT22;58360;0.000;0.000;2023-02-28T04:58:41;1.80;79.20
70762;DHT22;58360;0.000;0.000;2023-02-28T05:01:25;1.60;79.60
70762;DHT22;58360;0.000;0.000;2023-02-28T05:03:52;1.60;79.70
70762;DHT22;58360;0.000;0.000;2023-02-28T05:06:18;1.60;79.80
70762;DHT22;58360;0.000;0.000;2023-02-28T05:08:45;1.60;79.70
70762;DHT22;58360;0.000;0.000;2023-02-28T05:11:17;1.60;79.90
70762;DHT22;58360;0.000;0.000;2023-02-28T05:13:43;1.70;79.70
70762;DHT22;58360;0.000;0.000;2023-02-28T05:16:09;1.80;79.70
70762;DHT22;58360;0.000;0.000;2023-02-28T05:18:36;1.70;79.70
70762;DHT22;58360;0.000;0.000;2023-02-28T05:21:01;1.70;79.80
70762;DHT22;58360;0.000;0.000;2023-02-28T05:23:30;1.70;79.90
70762;DHT22;58360;0.000;0.000;2023-02-28T05:25:56;1.70;79.70
70762;DHT22;58360;0.000;0.000;2023-02-28T05:28:22;1.80;79.80
70762;DHT22;58360;0.000;0.000;2023-02-28T05:30:48;1.80;80.40
70762;DHT22;58360;0.000;0.000;2023-02-28T05:33:14;1.80;79.70
70762;DHT22;58360;0.000;0.000;2023-02-28T05:35:41;1.80;79.90
70762;DHT22;58360;0.000;0.000;2023-02-28T05:38:08;1.90;79.70
70762;DHT22;58360;0.000;0.000;2023-02-28T05:40:34;1.90;79.00
70762;DHT22;58360;0.000;0.000;2023-02-28T05:43:00;1.80;79.40
70762;DHT22;58360;0.000;0.000;2023-02-28T05:45:26;1.80;79.10
70762;DHT22;58360;0.000;0.000;2023-02-28T05:47:55;1.80;79.30
70762;DHT22;58360;0.000;0.000;2023-02-28T05:50:21;2.00;79.40
70762;DHT22;58360;0.000;0.000;2023-02-28T05:52:53;2.10;79.30
70762;DHT22;58360;0.000;0.000;2023-02-28T05:55:18;2.00;78.70
70762;DHT22;58360;0.000;0.000;2023-02-28T05:57:44;2.10;79.10
70762;DHT22;58360;0.000;0.000;2023-02-28T06:00:11;2.50;77.20
70762;DHT22;58360;0.000;0.000;2023-02-28T06:02:38;2.30;77.00
70762;DHT22;58360;0.000;0.000;2023-02-28T06:05:04;2.40;77.20
70762;DHT22;58360;0.000;0.000;2023-02-28T06:07:30;2.40;77.20
70762;DHT22;58360;0.000;0.000;2023-02-28T06:09:56;2.50;76.80
70762;DHT22;58360;0.000;0.000;2023-02-28T06:12:21;2.80;75.50
70762;DHT22;58360;0.000;0.000;2023-02-28T06:14:47;2.70;75.40
70762;DHT22;58360;0.000;0.000;2023-02-28T06:17:12;2.90;74.30
70762;DHT22;58360;0.000;0.000;2023-02-28T06:19:38;3.00;74.00
70762;DHT22;58360;0.000;0.000;2023-02-28T06:22:04;2.70;75.10
70762;DHT22;58360;0.000;0.000;2023-02-28T06:24:30;2.70;75.30
70762;DHT22;58360;0.000;0.000;2023-02-28T06:26:56;2.80;75.10
70762;DHT22;58360;0.000;0.000;2023-02-28T06:29:24;2.50;76.20
70762;DHT22;58360;0.000;0.000;2023-02-28T06:31:50;2.60;75.70
70762;DHT22;58360;0.000;0.000;2023-02-28T06:34:16;2.70;76.10
70762;DHT22;58360;0.000;0.000;2023-02-28T06:36:42;2.50;77.00
70762;DHT22;58360;0.000;0.000;2023-02-28T06:39:09;2.40;77.60
70762;DHT22;58360;0.000;0.000;2023-02-28T06:41:35;2.40;78.00
70762;DHT22;58360;0.000;0.000;2023-02-28T06:44:14;2.60;77.80
70762;DHT22;58360;0.000;0.000;2023-02-28T06:46:41;2.60;77.00
70762;DHT22;58360;0.000;0.000;2023-02-28T06:49:07;2.60;77.20
70762;DHT22;58360;0.000;0.000;2023-02-28T06:51:38;2.60;77.50
70762;DHT22;58360;0.000;0.000;2023-02-28T06:54:05;2.50;78.00
70762;DHT22;58360;0.000;0.000;2023-02-28T06:56:34;2.60;77.40
70762;DHT22;58360;0.000;0.000;2023-02-28T06:59:00;2.70;77.00
70762;DHT22;58360;0.000;0.000;2023-02-28T07:01:26;3.00;76.00
70762;DHT22;58360;0.000;0.000;2023-02-28T07:03:53;2.80;75.90
70762;DHT22;58360;0.000;0.000;2023-02-28T07:06:20;2.70;76.80
70762;DHT22;58360;0.000;0.000;2023-02-28T07:08:48;2.70;77.00
70762;DHT22;58360;0.000;0.000;2023-02-28T07:11:14;2.70;76.90
70762;DHT22;58360;0.000;0.000;2023-02-28T07:13:40;2.70;77.20
70762;DHT22;58360;0.000;0.000;2023-02-28T07:16:07;2.70;77.20
70762;DHT22;58360;0.000;0.000;2023-02-28T07:18:35;2.60;77.30
70762;DHT22;58360;0.000;0.000;2023-02-28T07:21:08;2.70;77.80
70762;DHT22;58360;0.000;0.000;2023-02-28T07:23:35;2.90;76.90
70762;DHT22;58360;0.000;0.000;2023-02-28T07:26:01;3.20;76.40
70762;DHT22;58360;0.000;0.000;2023-02-28T07:28:27;3.40;75.30
70762;DHT22;58360;0.000;0.000;2023-02-28T07:30:52;3.70;73.40
70762;DHT22;58360;0.000;0.000;2023-02-28T07:33:18;3.70;73.40
70762;DHT22;58360;0.000;0.000;2023-02-28T07:35:44;3.80;73.60
70762;DHT22;58360;0.000;0.000;2023-02-28T07:38:10;3.90;73.10
70762;DHT22;58360;0.000;0.000;2023-02-28T07:40:36;4.40;70.70
70762;DHT22;58360;0.000;0.000;2023-02-28T07:43:03;4.10;71.30
70762;DHT22;58360;0.000;0.000;2023-02-28T07:45:29;4.10;72.50
70762;DHT22;58360;0.000;0.000;2023-02-28T07:47:55;4.10;72.90
70762;DHT22;58360;0.000;0.000;2023-02-28T07:50:21;4.10;71.70
70762;DHT22;58360;0.000;0.000;2023-02-28T07:52:47;4.40;69.90
70762;DHT22;58360;0.000;0.000;2023-02-28T07:55:13;4.70;68.40
70762;DHT22;58360;0.000;0.000;2023-02-28T07:57:40;4.50;68.30
70762;DHT22;58360;0.000;0.000;2023-02-28T08:00:09;4.40;69.00
70762;DHT22;58360;0.000;0.000;2023-02-28T08:02:35;4.60;68.40
70762;DHT22;58360;0.000;0.000;2023-02-28T08:05:01;4.40;68.90
70762;DHT22;58360;0.000;0.000;2023-02-28T08:07:27;4.80;65.80
70762;DHT22;58360;0.000;0.000;2023-02-28T08:09:53;4.50;66.30
70762;DHT22;58360;0.000;0.000;2023-02-28T08:12:19;4.40;67.30
70762;DHT22;58360;0.000;0.000;2023-02-28T08:14:45;4.60;64.80
70762;DHT22;58360;0.000;0.000;2023-02-28T08:17:11;4.70;64.90
70762;DHT22;58360;0.000;0.000;2023-02-28T08:19:37;4.80;63.90
70762;DHT22;58360;0.000;0.000;2023-02-28T08:22:02;5.00;62.60
70762;DHT22;58360;0.000;0.000;2023-02-28T08:24:28;5.00;63.50
70762;DHT22;58360;0.000;0.000;2023-02-28T08:26:55;5.00;63.40
70762;DHT22;58360;0.000;0.000;2023-02-28T08:29:20;4.90;62.90
70762;DHT22;58360;0.000;0.000;2023-02-28T08:31:46;5.20;62.20
70762;DHT22;58360;0.000;0.000;2023-02-28T08:34:13;5.30;61.00
70762;DHT22;58360;0.000;0.000;2023-02-28T08:36:40;5.40;60.60
70762;DHT22;58360;0.000;0.000;2023-02-28T08:39:06;5.50;60.20
70762;DHT22;58360;0.000;0.000;2023-02-28T08:41:33;5.40;59.10
70762;DHT22;58360;0.000;0.000;2023-02-28T08:43:59;5.70;59.40
70762;DHT22;58360;0.000;0.000;2023-02-28T08:46:25;5.80;57.80
70762;DHT22;58360;0.000;0.000;2023-02-28T08:48:55;6.10;55.60
70762;DHT22;58360;0.000;0.000;2023-02-28T08:51:21;6.20;54.60
70762;DHT22;58360;0.000;0.000;2023-02-28T08:53:53;6.20;53.60
70762;DHT22;58360;0.000;0.000;2023-02-28T08:56:19;6.00;56.30
70762;DHT22;58360;0.000;0.000;2023-02-28T08:58:46;6.00;53.70
70762;DHT22;58360;0.000;0.000;2023-02-28T09:01:14;5.90;53.20
70762;DHT22;58360;0.000;0.000;2023-02-28T09:03:41;5.80;53.10
70762;DHT22;58360;0.000;0.000;2023-02-28T09:06:08;5.60;55.10
70762;DHT22;58360;0.000;0.000;2023-02-28T09:08:34;5.50;55.10
70762;DHT22;58360;0.000;0.000;2023-02-28T09:11:00;5.40;54.70
70762;DHT22;58360;0.000;0.000;2023-02-28T09:13:27;5.50;54.70
70762;DHT22;58360;0.000;0.000;2023-02-28T09:15:54;5.30;52.60
70762;DHT22;58360;0.000;0.000;2023-02-28T09:18:20;5.10;51.80
70762;DHT22;58360;0.000;0.000;2023-02-28T09:20:46;5.00;52.90
70762;DHT22;58360;0.000;0.000;2023-02-28T09:23:12;5.00;54.10
70762;DHT22;58360;0.000;0.000;2023-02-28T09:25:48;5.00;51.50
70762;DHT22;58360;0.000;0.000;2023-02-28T09:28:15;4.90;51.70
70762;DHT22;58360;0.000;0.000;2023-02-28T09:30:43;4.90;50.70
70762;DHT22;58360;0.000;0.000;2023-02-28T09:33:09;4.80;51.90
70762;DHT22;58360;0.000;0.000;2023-02-28T09:35:35;4.80;51.20
70762;DHT22;58360;0.000;0.000;2023-02-28T09:38:03;4.70;52.10
70762;DHT22;58360;0.000;0.000;2023-02-28T09:40:29;4.70;53.00
70762;DHT22;58360;0.000;0.000;2023-02-28T09:42:57;4.80;52.60
70762;DHT22;58360;0.000;0.000;2023-02-28T09:45:31;4.90;51.40
70762;DHT22;58360;0.000;0.000;2023-02-28T09:48:04;4.80;51.30
70762;DHT22;58360;0.000;0.000;2023-02-28T09:50:40;4.90;52.60
70762;DHT22;58360;0.000;0.000;2023-02-28T09:53:29;5.00;51.90
70762;DHT22;58360;0.000;0.000;2023-02-28T09:56:09;5.10;49.90
70762;DHT22;58360;0.000;0.000;2023-02-28T09:58:58;5.00;49.60
70762;DHT22;58360;0.000;0.000;2023-02-28T10:01:57;4.90;49.50
70762;DHT22;58360;0.000;0.000;2023-02-28T10:04:47;4.90;50.20
70762;DHT22;58360;0.000;0.000;2023-02-28T10:10:41;5.00;51.80
70762;DHT22;58360;0.000;0.000;2023-02-28T10:16:18;4.90;49.50
70762;DHT22;58360;0.000;0.000;2023-02-28T10:18:53;4.90;49.60
70762;DHT22;58360;0.000;0.000;2023-02-28T10:22:31;5.00;48.80
70762;DHT22;58360;0.000;0.000;2023-02-28T10:27:20;5.00;48.40
70762;DHT22;58360;0.000;0.000;2023-02-28T10:29:51;5.10;48.60
70762;DHT22;58360;0.000;0.000;2023-02-28T10:32:20;5.10;47.70
70762;DHT22;58360;0.000;0.000;2023-02-28T10:34:55;5.10;46.40
70762;DHT22;58360;0.000;0.000;2023-02-28T10:37:22;5.20;46.80
70762;DHT22;58360;0.000;0.000;2023-02-28T10:39:48;5.20;47.20
70762;DHT22;58360;0.000;0.000;2023-02-28T10:42:28;5.30;46.00
70762;DHT22;58360;0.000;0.000;2023-02-28T10:45:13;5.40;45.60
70762;DHT22;58360;0.000;0.000;2023-02-28T10:48:01;5.50;45.60
70762;DHT22;58360;0.000;0.000;2023-02-28T10:50:52;5.50;45.80
70762;DHT22;58360;0.000;0.000;2023-02-28T10:59:27;5.60;44.30
70762;DHT22;58360;0.000;0.000;2023-02-28T11:01:53;5.70;43.30
70762;DHT22;58360;0.000;0.000;2023-02-28T11:06:57;5.70;44.10
70762;DHT22;58360;0.000;0.000;2023-02-28T11:09:30;5.60;44.70
70762;DHT22;58360;0.000;0.000;2023-02-28T11:11:58;5.80;45.10
70762;DHT22;58360;0.000;0.000;2023-02-28T11:14:30;5.80;43.40
70762;DHT22;58360;0.000;0.000;2023-02-28T11:17:00;5.90;43.90
70762;DHT22;58360;0.000;0.000;2023-02-28T11:19:30;6.00;43.80
70762;DHT22;58360;0.000;0.000;2023-02-28T11:22:01;6.00;44.80
70762;DHT22;58360;0.000;0.000;2023-02-28T11:24:31;6.10;44.10
70762;DHT22;58360;0.000;0.000;2023-02-28T11:26:59;6.30;44.00
70762;DHT22;58360;0.000;0.000;2023-02-28T11:29:30;6.20;43.50
70762;DHT22;58360;0.000;0.000;2023-02-28T11:32:11;6.30;43.30
70762;DHT22;58360;0.000;0.000;2023-02-28T11:34:38;6.30;43.00
70762;DHT22;58360;0.000;0.000;2023-02-28T11:37:05;6.30;42.50
70762;DHT22;58360;0.000;0.000;2023-02-28T11:39:36;6.30;43.10
70762;DHT22;58360;0.000;0.000;2023-02-28T11:47:35;6.60;42.00
70762;DHT22;58360;0.000;0.000;2023-02-28T11:53:35;6.70;42.30
70762;DHT22;58360;0.000;0.000;2023-02-28T11:56:14;6.60;40.80
70762;DHT22;58360;0.000;0.000;2023-02-28T12:01:40;6.80;41.20
70762;DHT22;58360;0.000;0.000;2023-02-28T12:13:06;6.80;41.30
70762;DHT22;58360;0.000;0.000;2023-02-28T12:26:57;7.10;40.20
70762;DHT22;58360;0.000;0.000;2023-02-28T12:29:37;7.00;41.10
70762;DHT22;58360;0.000;0.000;2023-02-28T12:32:27;7.10;41.20
70762;DHT22;58360;0.000;0.000;2023-02-28T12:35:11;7.20;41.40
70762;DHT22;58360;0.000;0.000;2023-02-28T12:38:09;7.20;41.40
70762;DHT22;58360;0.000;0.000;2023-02-28T12:40:55;7.50;41.70
70762;DHT22;58360;0.000;0.000;2023-02-28T12:43:27;7.60;39.90
70762;DHT22;58360;0.000;0.000;2023-02-28T12:45:59;7.50;39.70
70762;DHT22;58360;0.000;0.000;2023-02-28T12:48:46;7.30;40.40
70762;DHT22;58360;0.000;0.000;2023-02-28T12:51:12;7.30;40.40
70762;DHT22;58360;0.000;0.000;2023-02-28T13:02:22;7.40;41.00
70762;DHT22;58360;0.000;0.000;2023-02-28T13:10:12;7.40;40.30
70762;DHT22;58360;0.000;0.000;2023-02-28T13:12:49;7.70;39.30
70762;DHT22;58360;0.000;0.000;2023-02-28T13:15:22;8.10;39.40
70762;DHT22;58360;0.000;0.000;2023-02-28T13:17:56;9.10;37.60
70762;DHT22;58360;0.000;0.000;2023-02-28T13:20:34;10.20;35.60
70762;DHT22;58360;0.000;0.000;2023-02-28T13:23:00;10.90;35.00
70762;DHT22;58360;0.000;0.000;2023-02-28T13:27:59;11.60;34.20
70762;DHT22;58360;0.000;0.000;2023-02-28T13:33:32;11.80;33.80
70762;DHT22;58360;0.000;0.000;2023-02-28T13:36:31;12.10;33.70
70762;DHT22;58360;0.000;0.000;2023-02-28T13:44:12;12.00;34.20
70762;DHT22;58360;0.000;0.000;2023-02-28T13:49:29;11.60;35.00
70762;DHT22;58360;0.000;0.000;2023-02-28T13:52:10;11.60;34.30
70762;DHT22;58360;0.000;0.000;2023-02-28T14:06:25;11.60;35.20
70762;DHT22;58360;0.000;0.000;2023-02-28T14:09:05;11.80;35.00
70762;DHT22;58360;0.000;0.000;2023-02-28T14:11:36;11.90;35.60
70762;DHT22;58360;0.000;0.000;2023-02-28T14:14:04;11.90;35.30
70762;DHT22;58360;0.000;0.000;2023-02-28T14:16:50;11.50;34.80
70762;DHT22;58360;0.000;0.000;2023-02-28T14:19:28;11.40;35.70
70762;DHT22;58360;0.000;0.000;2023-02-28T14:22:04;11.30;35.70
70762;DHT22;58360;0.000;0.000;2023-02-28T14:38:16;11.20;36.30
70762;DHT22;58360;0.000;0.000;2023-02-28T14:40:45;11.00;36.20
70762;DHT22;58360;0.000;0.000;2023-02-28T14:43:27;10.90;36.30
70762;DHT22;58360;0.000;0.000;2023-02-28T14:46:00;10.50;36.40
70762;DHT22;58360;0.000;0.000;2023-02-28T14:48:27;10.30;37.50
70762;DHT22;58360;0.000;0.000;2023-02-28T14:50:59;10.30;36.70
70762;DHT22;58360;0.000;0.000;2023-02-28T14:53:45;10.20;37.50
70762;DHT22;58360;0.000;0.000;2023-02-28T14:56:34;10.20;38.40
70762;DHT22;58360;0.000;0.000;2023-02-28T14:59:01;10.30;37.20
70762;DHT22;58360;0.000;0.000;2023-02-28T15:01:26;10.10;37.30
70762;DHT22;58360;0.000;0.000;2023-02-28T15:04:02;10.00;38.10
70762;DHT22;58360;0.000;0.000;2023-02-28T15:06:28;10.00;38.10
70762;DHT22;58360;0.000;0.000;2023-02-28T15:09:15;10.00;38.30
70762;DHT22;58360;0.000;0.000;2023-02-28T15:11:42;9.90;37.70
70762;DHT22;58360;0.000;0.000;2023-02-28T15:14:19;9.80;37.90
70762;DHT22;58360;0.000;0.000;2023-02-28T15:16:55;9.70;38.20
70762;DHT22;58360;0.000;0.000;2023-02-28T15:19:29;9.70;38.30
70762;DHT22;58360;0.000;0.000;2023-02-28T15:22:03;9.60;38.60
70762;DHT22;58360;0.000;0.000;2023-02-28T15:24:42;9.50;39.30
70762;DHT22;58360;0.000;0.000;2023-02-28T15:27:16;9.40;39.30
70762;DHT22;58360;0.000;0.000;2023-02-28T15:29:48;9.50;39.00
70762;DHT22;58360;0.000;0.000;2023-02-28T15:32:37;9.40;39.20
70762;DHT22;58360;0.000;0.000;2023-02-28T15:35:24;9.00;39.60
70762;DHT22;58360;0.000;0.000;2023-02-28T15:40:31;8.60;41.00
70762;DHT22;58360;0.000;0.000;2023-02-28T15:43:18;8.50;41.20
70762;DHT22;58360;0.000;0.000;2023-02-28T15:45:51;8.40;42.20
70762;DHT22;58360;0.000;0.000;2023-02-28T15:48:22;8.30;41.90
70762;DHT22;58360;0.000;0.000;2023-02-28T15:50:54;8.20;42.40
70762;DHT22;58360;0.000;0.000;2023-02-28T15:53:24;8.10;41.50
70762;DHT22;58360;0.000;0.000;2023-02-28T15:55:56;7.80;42.80
70762;DHT22;58360;0.000;0.000;2023-02-28T15:58:24;7.70;43.30
70762;DHT22;58360;0.000;0.000;2023-02-28T16:01:06;7.70;43.70
70762;DHT22;58360;0.000;0.000;2023-02-28T16:03:41;7.80;43.70
70762;DHT22;58360;0.000;0.000;2023-02-28T16:06:55;7.80;42.80
70762;DHT22;58360;0.000;0.000;2023-02-28T16:08:56;7.80;43.30
70762;DHT22;58360;0.000;0.000;2023-02-28T16:11:21;7.80;42.70
70762;DHT22;58360;0.000;0.000;2023-02-28T16:13:48;7.60;43.30
70762;DHT22;58360;0.000;0.000;2023-02-28T16:16:22;7.70;43.70
70762;DHT22;58360;0.000;0.000;2023-02-28T16:18:48;7.60;43.80
70762;DHT22;58360;0.000;0.000;2023-02-28T16:21:14;7.50;44.00
70762;DHT22;58360;0.000;0.000;2023-02-28T16:23:39;7.30;44.40
70762;DHT22;58360;0.000;0.000;2023-02-28T16:26:06;7.20;44.30
70762;DHT22;58360;0.000;0.000;2023-02-28T16:28:35;7.10;44.30
70762;DHT22;58360;0.000;0.000;2023-02-28T16:31:04;7.00;44.90
70762;DHT22;58360;0.000;0.000;2023-02-28T16:33:31;7.10;44.90
70762;DHT22;58360;0.000;0.000;2023-02-28T16:35:58;7.10;45.00
70762;DHT22;58360;0.000;0.000;2023-02-28T16:38:23;7.10;44.10
70762;DHT22;58360;0.000;0.000;2023-02-28T16:40:51;7.00;44.90
70762;DHT22;58360;0.000;0.000;2023-02-28T16:43:23;6.90;44.90
70762;DHT22;58360;0.000;0.000;2023-02-28T16:45:57;6.80;45.10
70762;DHT22;58360;0.000;0.000;2023-02-28T16:48:24;6.80;45.10
70762;DHT22;58360;0.000;0.000;2023-02-28T16:50:51;6.60;45.80
70762;DHT22;58360;0.000;0.000;2023-02-28T16:53:17;6.70;45.60
70762;DHT22;58360;0.000;0.000;2023-02-28T16:55:42;6.80;45.60
70762;DHT22;58360;0.000;0.000;2023-02-28T16:58:14;6.80;45.50
70762;DHT22;58360;0.000;0.000;2023-02-28T17:00:40;6.90;45.30
70762;DHT22;58360;0.000;0.000;2023-02-28T17:03:24;6.90;45.70
70762;DHT22;58360;0.000;0.000;2023-02-28T17:05:50;6.70;45.80
70762;DHT22;58360;0.000;0.000;2023-02-28T17:08:16;6.70;46.00
70762;DHT22;58360;0.000;0.000;2023-02-28T17:10:42;6.60;47.10
70762;DHT22;58360;0.000;0.000;2023-02-28T17:13:08;6.60;46.50
70762;DHT22;58360;0.000;0.000;2023-02-28T17:15:35;6.60;46.60
70762;DHT22;58360;0.000;0.000;2023-02-28T17:18:01;6.50;46.70
70762;DHT22;58360;0.000;0.000;2023-02-28T17:20:27;6.70;46.80
70762;DHT22;58360;0.000;0.000;2023-02-28T17:22:53;6.70;46.10
70762;DHT22;58360;0.000;0.000;2023-02-28T17:25:20;6.50;47.10
70762;DHT22;58360;0.000;0.000;2023-02-28T17:27:46;6.50;46.80
70762;DHT22;58360;0.000;0.000;2023-02-28T17:30:18;6.50;47.20
70762;DHT22;58360;0.000;0.000;2023-02-28T17:32:44;6.50;47.10
70762;DHT22;58360;0.000;0.000;2023-02-28T17:35:10;6.50;47.20
70762;DHT22;58360;0.000;0.000;2023-02-28T17:37:36;6.40;47.90
70762;DHT22;58360;0.000;0.000;2023-02-28T17:40:03;6.30;47.40
70762;DHT22;58360;0.000;0.000;2023-02-28T17:42:29;6.30;47.30
70762;DHT22;58360;0.000;0.000;2023-02-28T17:44:56;6.40;47.60
70762;DHT22;58360;0.000;0.000;2023-02-28T17:47:21;6.40;47.80
70762;DHT22;58360;0.000;0.000;2023-02-28T17:49:47;6.30;47.70
70762;DHT22;58360;0.000;0.000;2023-02-28T17:52:13;6.30;47.50
70762;DHT22;58360;0.000;0.000;2023-02-28T17:54:38;6.20;48.70
70762;DHT22;58360;0.000;0.000;2023-02-28T17:57:04;6.10;48.20
70762;DHT22;58360;0.000;0.000;2023-02-28T17:59:30;6.00;48.90
70762;DHT22;58360;0.000;0.000;2023-02-28T18:02:00;5.80;50.10
70762;DHT22;58360;0.000;0.000;2023-02-28T18:04:25;6.00;48.90
70762;DHT22;58360;0.000;0.000;2023-02-28T18:06:53;6.00;49.40
70762;DHT22;58360;0.000;0.000;2023-02-28T18:09:21;6.00;48.70
70762;DHT22;58360;0.000;0.000;2023-02-28T18:11:51;6.00;48.80
70762;DHT22;58360;0.000;0.000;2023-02-28T18:14:18;6.00;49.90
70762;DHT22;58360;0.000;0.000;2023-02-28T18:16:45;5.80;50.30
70762;DHT22;58360;0.000;0.000;2023-02-28T18:19:11;5.90;50.40
70762;DHT22;58360;0.000;0.000;2023-02-28T18:21:44;5.80;51.00
70762;DHT22;58360;0.000;0.000;2023-02-28T18:24:11;5.80;51.50
70762;DHT22;58360;0.000;0.000;2023-02-28T18:26:38;5.70;50.70
70762;DHT22;58360;0.000;0.000;2023-02-28T18:29:05;5.70;50.40
70762;DHT22;58360;0.000;0.000;2023-02-28T18:31:31;5.60;50.80
70762;DHT22;58360;0.000;0.000;2023-02-28T18:33:57;5.60;51.10
70762;DHT22;58360;0.000;0.000;2023-02-28T18:36:23;5.30;51.40
70762;DHT22;58360;0.000;0.000;2023-02-28T18:38:49;5.00;52.30
70762;DHT22;58360;0.000;0.000;2023-02-28T18:41:15;5.10;52.40
70762;DHT22;58360;0.000;0.000;2023-02-28T18:43:41;5.20;52.40
70762;DHT22;58360;0.000;0.000;2023-02-28T18:46:10;5.10;52.90